Aurora, Oregon
Current Conditions -  °F | °C
As of 9:53 PM on Sunday 23 Nov 2014 (Local Time) from KUAO Reporting Station
Broken Clouds Broken Clouds  
Wind Chill:   Ceiling: 5500
Heat Index:   Visibility: 10mi
Dew Point:   Wind: 0mph
Humidity: 97%   Direction: NA
Pressure: 30.35"   Gusts: NA
Location:  45.23°N, 122.76°W
Report Text: KUAO 240553Z AUTO 00000KT 10SM BKN055 08/08 A3035 RMK AO2 SLP277 60003 T00830078 10100 20083 50009
Loading
Personal Weather Stations






























Interactive Weather Map New forecast layout! Learn more

10-Day Weather Forecast

Advertisements
Track Severe Weather on mobile